createdAt,value
2023-02-16T00:00:27.649Z,40.03
2023-02-16T00:02:54.817Z,37.07
2023-02-16T00:05:27.159Z,35.97
2023-02-16T00:07:54.970Z,33.60
2023-02-16T00:10:22.497Z,36.07
2023-02-16T00:13:08.303Z,35.27
2023-02-16T00:15:35.159Z,38.90
2023-02-16T00:18:04.484Z,40.00
2023-02-16T00:20:31.651Z,41.00
2023-02-16T00:22:58.540Z,37.63
2023-02-16T00:25:25.185Z,36.93
2023-02-16T00:27:52.141Z,33.37
2023-02-16T00:30:22.528Z,37.93
2023-02-16T00:32:50.911Z,41.07
2023-02-16T00:35:19.076Z,37.80
2023-02-16T00:37:49.357Z,41.13
2023-02-16T00:40:17.443Z,39.20
2023-02-16T00:42:46.692Z,34.43
2023-02-16T00:45:20.875Z,37.13
2023-02-16T00:47:50.097Z,41.10
2023-02-16T00:50:18.788Z,37.57
2023-02-16T00:52:47.340Z,38.53
2023-02-16T00:55:35.293Z,36.30
2023-02-16T00:58:26.244Z,34.20
2023-02-16T01:00:55.585Z,39.10
2023-02-16T01:03:28.277Z,33.07
2023-02-16T01:06:14.460Z,34.03
2023-02-16T01:09:00.563Z,36.87
2023-02-16T01:11:27.836Z,33.00
2023-02-16T01:13:55.416Z,35.30
2023-02-16T01:16:36.927Z,38.43
2023-02-16T01:19:04.749Z,37.67
2023-02-16T01:21:31.518Z,41.97
2023-02-16T01:24:01.465Z,33.03
2023-02-16T01:26:29.076Z,31.73
2023-02-16T01:28:55.711Z,34.87
2023-02-16T01:31:22.532Z,38.53
2023-02-16T01:33:50.624Z,41.70
2023-02-16T01:36:31.792Z,39.80
2023-02-16T01:38:59.010Z,44.93
2023-02-16T01:41:44.617Z,44.70
2023-02-16T01:44:20.791Z,41.70
2023-02-16T01:47:19.102Z,43.57
2023-02-16T01:49:45.796Z,37.50
2023-02-16T01:52:21.264Z,42.30
2023-02-16T01:54:59.617Z,43.10
2023-02-16T01:57:44.759Z,38.07
2023-02-16T02:00:17.705Z,39.97
2023-02-16T02:02:52.509Z,42.13
2023-02-16T02:05:36.219Z,37.30
2023-02-16T02:08:11.010Z,38.40
2023-02-16T02:11:09.838Z,42.60
2023-02-16T02:13:54.641Z,44.10
2023-02-16T02:16:25.195Z,45.77
2023-02-16T02:18:52.293Z,36.40
2023-02-16T02:21:53.764Z,40.43
2023-02-16T02:24:45.226Z,46.27
2023-02-16T02:27:24.689Z,50.47
2023-02-16T02:30:01.441Z,42.70
2023-02-16T02:32:51.283Z,48.33
2023-02-16T02:35:51.200Z,45.40
2023-02-16T02:38:34.449Z,46.30
2023-02-16T02:41:10.921Z,39.53
2023-02-16T02:43:50.551Z,33.03
2023-02-16T02:46:36.319Z,37.43
2023-02-16T02:49:04.100Z,45.63
2023-02-16T02:51:31.075Z,38.23
2023-02-16T02:54:33.474Z,43.63
2023-02-16T02:57:49.881Z,42.90
2023-02-16T03:00:43.726Z,42.53
2023-02-16T03:03:31.943Z,50.23
2023-02-16T03:06:07.132Z,40.47
2023-02-16T03:08:37.017Z,42.07
2023-02-16T03:11:34.373Z,43.87
2023-02-16T03:14:08.959Z,41.83
2023-02-16T03:16:44.348Z,43.83
2023-02-16T03:19:32.378Z,47.03
2023-02-16T03:22:19.435Z,42.60
2023-02-16T03:25:04.856Z,41.80
2023-02-16T03:27:54.465Z,47.80
2023-02-16T03:30:24.105Z,42.50
2023-02-16T03:32:51.448Z,44.57
2023-02-16T03:35:18.288Z,43.83
2023-02-16T03:37:46.227Z,50.10
2023-02-16T03:40:28.416Z,44.97
2023-02-16T03:43:05.887Z,45.83
2023-02-16T03:45:35.752Z,45.00
2023-02-16T03:48:03.629Z,49.43
2023-02-16T03:50:30.797Z,46.43
2023-02-16T03:53:06.572Z,48.73
2023-02-16T03:55:41.744Z,47.20
2023-02-16T03:58:10.718Z,52.63
2023-02-16T04:00:38.144Z,46.67
2023-02-16T04:03:05.911Z,49.87
2023-02-16T04:05:33.236Z,50.40
2023-02-16T04:08:00.004Z,48.90
2023-02-16T04:10:27.053Z,48.20
2023-02-16T04:12:54.045Z,51.97
2023-02-16T04:15:24.686Z,46.63
2023-02-16T04:17:51.555Z,48.20
2023-02-16T04:20:20.899Z,49.27
2023-02-16T04:22:48.128Z,49.83
2023-02-16T04:25:15.459Z,52.50
2023-02-16T04:27:43.257Z,48.73
2023-02-16T04:30:16.826Z,44.87
2023-02-16T04:32:43.822Z,54.53
2023-02-16T04:35:10.664Z,46.33
2023-02-16T04:37:37.741Z,48.27
2023-02-16T04:40:05.647Z,48.27
2023-02-16T04:42:32.759Z,49.67
2023-02-16T04:44:59.626Z,46.20
2023-02-16T04:47:26.623Z,46.30
2023-02-16T04:49:53.627Z,48.63
2023-02-16T04:52:20.535Z,49.73
2023-02-16T04:54:47.444Z,51.60
2023-02-16T04:57:14.455Z,48.23
2023-02-16T04:59:41.140Z,49.53
2023-02-16T05:02:08.226Z,53.90
2023-02-16T05:04:34.959Z,56.73
2023-02-16T05:07:01.634Z,59.07
2023-02-16T05:09:28.397Z,54.63
2023-02-16T05:12:13.886Z,53.63
2023-02-16T05:14:44.936Z,54.87
2023-02-16T05:17:16.998Z,52.20
2023-02-16T05:19:46.441Z,50.70
2023-02-16T05:22:14.168Z,53.80
2023-02-16T05:24:41.765Z,55.40
2023-02-16T05:27:11.577Z,52.67
2023-02-16T05:29:38.314Z,53.33
2023-02-16T05:32:05.193Z,55.70
2023-02-16T05:34:32.236Z,55.70
2023-02-16T05:36:59.108Z,54.43
2023-02-16T05:39:26.544Z,54.60
2023-02-16T05:41:53.228Z,49.93
2023-02-16T05:44:19.924Z,58.03
2023-02-16T05:46:46.628Z,47.87
2023-02-16T05:49:15.450Z,43.90
2023-02-16T05:51:42.493Z,51.30
2023-02-16T05:54:10.701Z,50.03
2023-02-16T05:56:37.560Z,54.00
2023-02-16T05:59:04.281Z,50.80
2023-02-16T06:01:30.951Z,52.60
2023-02-16T06:03:57.658Z,51.93
2023-02-16T06:06:24.408Z,52.00
2023-02-16T06:08:51.159Z,50.77
2023-02-16T06:11:35.971Z,55.17
2023-02-16T06:14:08.402Z,51.23
2023-02-16T06:16:36.253Z,51.43
2023-02-16T06:19:04.141Z,49.07
2023-02-16T06:21:31.396Z,56.43
2023-02-16T06:23:58.362Z,47.77
2023-02-16T06:26:26.005Z,54.33
2023-02-16T06:28:52.821Z,55.63
2023-02-16T06:31:19.687Z,48.10
2023-02-16T06:33:47.569Z,49.07
2023-02-16T06:36:14.867Z,56.70
2023-02-16T06:38:41.845Z,48.10
2023-02-16T06:41:09.295Z,53.53
2023-02-16T06:43:36.146Z,51.20
2023-02-16T06:46:02.876Z,52.53
2023-02-16T06:48:29.621Z,50.50
2023-02-16T06:50:56.541Z,48.63
2023-02-16T06:53:23.278Z,54.47
2023-02-16T06:55:51.419Z,61.03
2023-02-16T06:58:18.153Z,54.10
2023-02-16T07:00:44.862Z,51.83
2023-02-16T07:03:12.116Z,52.80
2023-02-16T07:05:38.886Z,54.37
2023-02-16T07:08:05.572Z,56.77
2023-02-16T07:10:43.935Z,60.37
2023-02-16T07:13:15.797Z,52.63
2023-02-16T07:15:42.459Z,54.87
2023-02-16T07:18:09.347Z,52.53
2023-02-16T07:20:36.120Z,52.57
2023-02-16T07:23:02.825Z,49.10
2023-02-16T07:25:29.688Z,51.90
2023-02-16T07:27:56.389Z,52.80
2023-02-16T07:30:23.786Z,44.30
2023-02-16T07:32:50.937Z,51.80
2023-02-16T07:35:17.870Z,48.30
2023-02-16T07:37:44.522Z,46.20
2023-02-16T07:40:12.121Z,46.80
2023-02-16T07:42:39.039Z,43.83
2023-02-16T07:45:05.947Z,48.53
2023-02-16T07:47:32.678Z,47.43
2023-02-16T07:49:59.318Z,42.70
2023-02-16T07:52:31.007Z,43.00
2023-02-16T07:55:01.090Z,48.30
2023-02-16T07:57:28.538Z,42.00
2023-02-16T07:59:55.799Z,41.07
2023-02-16T08:02:23.514Z,42.73
2023-02-16T08:04:52.617Z,44.17
2023-02-16T08:07:20.235Z,46.03
2023-02-16T08:09:46.953Z,36.07
2023-02-16T08:12:15.113Z,42.60
2023-02-16T08:14:42.319Z,42.17
2023-02-16T08:17:09.578Z,40.80
2023-02-16T08:19:37.294Z,41.40
2023-02-16T08:22:04.651Z,39.17
2023-02-16T08:24:31.985Z,45.90
2023-02-16T08:26:58.659Z,44.17
2023-02-16T08:29:26.183Z,42.70
2023-02-16T08:31:55.345Z,39.60
2023-02-16T08:34:22.708Z,41.20
2023-02-16T08:36:56.697Z,36.90
2023-02-16T08:39:26.409Z,41.80
2023-02-16T08:41:53.996Z,38.63
2023-02-16T08:44:22.627Z,43.33
2023-02-16T08:46:52.091Z,38.30
2023-02-16T08:49:21.701Z,39.43
2023-02-16T08:51:50.806Z,35.60
2023-02-16T08:54:20.067Z,37.20
2023-02-16T08:56:47.808Z,39.57
2023-02-16T08:59:15.885Z,37.83
2023-02-16T09:01:42.648Z,48.60
2023-02-16T09:04:09.680Z,44.60
2023-02-16T09:06:38.335Z,40.03
2023-02-16T09:09:05.764Z,39.90
2023-02-16T09:11:33.051Z,38.43
2023-02-16T09:13:59.800Z,35.50
2023-02-16T09:16:33.661Z,39.53
2023-02-16T09:19:01.725Z,45.60
2023-02-16T09:21:33.217Z,43.47
2023-02-16T09:24:05.183Z,44.67
2023-02-16T09:26:34.632Z,36.20
2023-02-16T09:29:02.109Z,36.53
2023-02-16T09:31:32.461Z,41.40
2023-02-16T09:34:05.844Z,40.70
2023-02-16T09:36:32.514Z,35.73
2023-02-16T09:38:59.478Z,40.93
2023-02-16T09:41:38.699Z,35.83
2023-02-16T09:44:17.228Z,34.90
2023-02-16T09:46:44.495Z,38.33
2023-02-16T09:49:32.607Z,36.50
2023-02-16T09:52:08.912Z,39.70
2023-02-16T09:54:46.575Z,36.37
2023-02-16T09:57:31.484Z,37.30
2023-02-16T10:00:07.758Z,36.33
2023-02-16T10:02:54.079Z,37.53
2023-02-16T10:05:26.798Z,36.20
2023-02-16T10:07:58.845Z,33.97
2023-02-16T10:10:33.848Z,34.10
2023-02-16T10:13:07.451Z,36.23
2023-02-16T10:15:37.698Z,35.80
2023-02-16T10:18:18.270Z,34.93
2023-02-16T10:20:49.503Z,35.97
2023-02-16T10:23:40.474Z,32.47
2023-02-16T10:26:13.516Z,34.93
2023-02-16T10:28:47.910Z,34.73
2023-02-16T10:31:24.359Z,34.90
2023-02-16T10:33:51.048Z,34.53
2023-02-16T10:36:58.211Z,38.57
2023-02-16T10:39:53.494Z,38.50
2023-02-16T10:42:50.063Z,42.07
2023-02-16T10:45:30.344Z,35.63
2023-02-16T10:47:57.248Z,36.13
2023-02-16T10:50:29.918Z,34.93
2023-02-16T10:53:00.803Z,33.33
2023-02-16T10:55:27.721Z,33.60
2023-02-16T10:57:58.451Z,27.47
2023-02-16T11:00:53.168Z,33.70
2023-02-16T11:03:24.875Z,33.17
2023-02-16T11:05:53.182Z,37.60
2023-02-16T11:08:19.898Z,36.73
2023-02-16T11:10:52.644Z,34.57
2023-02-16T11:13:28.232Z,31.93
2023-02-16T11:15:58.995Z,40.13
2023-02-16T11:18:37.734Z,35.40
2023-02-16T11:21:06.648Z,32.20
2023-02-16T11:23:41.621Z,29.97
2023-02-16T11:26:11.696Z,34.37
2023-02-16T11:28:47.794Z,30.80
2023-02-16T11:31:19.794Z,31.40
2023-02-16T11:34:11.980Z,35.23
2023-02-16T11:36:44.971Z,32.50
2023-02-16T11:39:20.430Z,28.77
2023-02-16T11:41:52.945Z,32.47
2023-02-16T11:44:32.572Z,31.03
2023-02-16T11:47:07.863Z,39.23
2023-02-16T11:49:40.793Z,32.67
2023-02-16T11:52:23.026Z,37.73
2023-02-16T11:54:55.764Z,32.27
2023-02-16T11:57:26.851Z,31.60
2023-02-16T11:59:54.872Z,32.20
2023-02-16T12:02:57.904Z,35.10
2023-02-16T12:05:34.544Z,33.53
2023-02-16T12:08:32.217Z,31.67
2023-02-16T12:11:17.364Z,30.70
2023-02-16T12:14:02.818Z,28.80
2023-02-16T12:16:59.897Z,29.30
2023-02-16T12:19:39.673Z,29.50
2023-02-16T12:22:32.413Z,31.20
2023-02-16T12:25:02.670Z,32.00
2023-02-16T12:27:49.158Z,33.57
2023-02-16T12:30:36.726Z,34.73
2023-02-16T12:33:15.773Z,29.97
2023-02-16T12:35:51.311Z,34.00
2023-02-16T12:38:46.346Z,34.77
2023-02-16T12:41:43.853Z,32.17
2023-02-16T12:44:35.938Z,30.03
2023-02-16T12:47:06.234Z,32.37
2023-02-16T12:49:45.954Z,33.50
2023-02-16T12:52:40.261Z,31.43
2023-02-16T12:55:30.810Z,32.63
2023-02-16T12:58:04.266Z,32.27
2023-02-16T13:00:55.951Z,32.70
2023-02-16T13:03:22.662Z,32.80
2023-02-16T13:06:00.465Z,30.70
2023-02-16T13:08:54.312Z,35.63
2023-02-16T13:11:28.342Z,32.97
2023-02-16T13:14:01.846Z,36.87
2023-02-16T13:16:43.566Z,34.27
2023-02-16T13:19:14.760Z,30.53
2023-02-16T13:21:52.137Z,33.23
2023-02-16T13:24:37.769Z,34.47
2023-02-16T13:27:29.786Z,31.93
2023-02-16T13:30:05.822Z,33.67
2023-02-16T13:32:46.447Z,30.90
2023-02-16T13:35:13.042Z,36.20
2023-02-16T13:38:01.145Z,29.80
2023-02-16T13:40:42.154Z,31.47
2023-02-16T13:43:16.675Z,34.07
2023-02-16T13:45:46.903Z,32.23
2023-02-16T13:48:23.952Z,27.57
2023-02-16T13:51:05.161Z,30.23
2023-02-16T13:53:41.544Z,29.90
2023-02-16T13:56:22.192Z,32.93
2023-02-16T13:58:51.713Z,28.47
2023-02-16T14:01:38.783Z,33.00
2023-02-16T14:04:34.615Z,31.77
2023-02-16T14:07:07.557Z,30.10
2023-02-16T14:09:37.259Z,28.50
2023-02-16T14:12:11.598Z,30.70
2023-02-16T14:14:38.230Z,27.47
2023-02-16T14:17:21.449Z,27.67
2023-02-16T14:20:24.396Z,25.90
2023-02-16T14:22:53.969Z,30.50
2023-02-16T14:25:22.035Z,26.63
2023-02-16T14:27:54.430Z,25.60
2023-02-16T14:30:33.443Z,30.43
2023-02-16T14:33:17.582Z,25.70
2023-02-16T14:36:07.935Z,25.40
2023-02-16T14:38:37.642Z,28.00
2023-02-16T14:41:13.758Z,33.17
2023-02-16T14:43:42.251Z,26.77
2023-02-16T14:46:24.577Z,24.87
2023-02-16T14:48:51.541Z,23.23
2023-02-16T14:51:33.297Z,23.53
2023-02-16T14:54:24.505Z,24.43
2023-02-16T14:56:57.165Z,25.30
2023-02-16T14:59:40.835Z,26.87
2023-02-16T15:02:28.148Z,25.30
2023-02-16T15:04:54.895Z,30.50
2023-02-16T15:07:23.457Z,23.00
2023-02-16T15:09:57.102Z,23.30
2023-02-16T15:12:38.899Z,23.20
2023-02-16T15:15:10.071Z,23.07
2023-02-16T15:17:44.719Z,27.90
2023-02-16T15:20:29.314Z,22.63
2023-02-16T15:22:58.905Z,31.53
2023-02-16T15:25:28.206Z,27.53
2023-02-16T15:28:01.290Z,27.17
2023-02-16T15:30:30.593Z,21.80
2023-02-16T15:33:06.882Z,23.70
2023-02-16T15:35:38.413Z,24.17
2023-02-16T15:38:31.522Z,23.03
2023-02-16T15:41:02.487Z,23.53
2023-02-16T15:43:37.357Z,24.90
2023-02-16T15:46:07.561Z,25.00
2023-02-16T15:48:37.565Z,26.67
2023-02-16T15:51:18.981Z,25.80
2023-02-16T15:53:58.437Z,22.73
2023-02-16T15:56:44.130Z,28.10
2023-02-16T15:59:27.680Z,23.63
2023-02-16T16:02:24.633Z,22.60
2023-02-16T16:04:57.464Z,25.43
2023-02-16T16:07:35.437Z,25.20
2023-02-16T16:10:09.484Z,28.43
2023-02-16T16:12:36.418Z,25.43
2023-02-16T16:15:04.362Z,23.20
2023-02-16T16:17:37.813Z,25.50
2023-02-16T16:20:27.542Z,24.50
2023-02-16T16:23:00.344Z,23.60
2023-02-16T16:25:36.678Z,30.80
2023-02-16T16:28:05.981Z,28.03
2023-02-16T16:30:34.640Z,32.20
2023-02-16T16:33:10.137Z,27.77
2023-02-16T16:35:50.659Z,23.83
2023-02-16T16:38:27.989Z,23.80
2023-02-16T16:41:01.418Z,21.50
2023-02-16T16:43:34.854Z,24.47
2023-02-16T16:46:25.089Z,24.53
2023-02-16T16:49:07.968Z,24.40
2023-02-16T16:51:43.179Z,25.17
2023-02-16T16:54:39.522Z,24.17
2023-02-16T16:57:17.994Z,28.20
2023-02-16T16:59:44.693Z,23.70
2023-02-16T17:02:11.337Z,27.20
2023-02-16T17:04:38.008Z,21.43
2023-02-16T17:07:05.884Z,19.90
2023-02-16T17:09:32.517Z,22.00
2023-02-16T17:11:59.369Z,22.87
2023-02-16T17:14:27.725Z,21.00
2023-02-16T17:16:56.843Z,23.40
2023-02-16T17:19:23.563Z,20.77
2023-02-16T17:21:50.260Z,20.87
2023-02-16T17:24:17.025Z,18.07
2023-02-16T17:26:43.806Z,19.80
2023-02-16T17:29:10.476Z,20.33
2023-02-16T17:31:37.190Z,17.80
2023-02-16T17:34:04.375Z,19.97
2023-02-16T17:36:31.075Z,21.83
2023-02-16T17:38:58.080Z,21.87
2023-02-16T17:41:28.007Z,19.27
2023-02-16T17:43:55.099Z,19.93
2023-02-16T17:46:23.229Z,21.40
2023-02-16T17:48:53.232Z,19.07
2023-02-16T17:51:22.362Z,20.93
2023-02-16T17:53:49.195Z,18.83
2023-02-16T17:56:18.869Z,20.83
2023-02-16T17:58:46.058Z,20.63
2023-02-16T18:01:14.269Z,22.27
2023-02-16T18:03:41.155Z,18.70
2023-02-16T18:06:09.026Z,19.87
2023-02-16T18:08:35.690Z,21.60
2023-02-16T18:11:03.448Z,21.97
2023-02-16T18:13:30.935Z,20.30
2023-02-16T18:15:59.419Z,19.30
2023-02-16T18:18:26.296Z,20.23
2023-02-16T18:20:53.549Z,22.77
2023-02-16T18:23:20.287Z,23.70
2023-02-16T18:25:47.092Z,18.73
2023-02-16T18:28:18.361Z,20.23
2023-02-16T18:30:47.726Z,20.53
2023-02-16T18:33:14.726Z,25.50
2023-02-16T18:35:41.952Z,19.03
2023-02-16T18:38:08.860Z,20.50
2023-02-16T18:40:35.927Z,21.53
2023-02-16T18:43:02.639Z,22.07
2023-02-16T18:45:29.337Z,20.93
2023-02-16T18:47:56.124Z,22.37
2023-02-16T18:50:22.768Z,22.43
2023-02-16T18:52:49.510Z,20.70
2023-02-16T18:55:16.720Z,22.30
2023-02-16T18:57:43.522Z,23.43
2023-02-16T19:00:12.521Z,18.07
2023-02-16T19:02:40.718Z,20.30
2023-02-16T19:05:09.023Z,23.87
2023-02-16T19:07:36.102Z,22.93
2023-02-16T19:10:04.688Z,23.60
2023-02-16T19:12:31.344Z,27.13
2023-02-16T19:14:58.046Z,22.07
2023-02-16T19:17:24.724Z,22.47
2023-02-16T19:19:51.371Z,24.90
2023-02-16T19:22:18.062Z,20.73
2023-02-16T19:24:44.765Z,25.27
2023-02-16T19:27:11.967Z,24.17
2023-02-16T19:29:38.762Z,24.03
2023-02-16T19:32:05.470Z,25.97
2023-02-16T19:34:32.890Z,21.57
2023-02-16T19:36:59.944Z,21.00
2023-02-16T19:39:26.681Z,21.80
2023-02-16T19:41:53.377Z,19.83
2023-02-16T19:44:20.073Z,19.67
2023-02-16T19:46:46.723Z,22.23
2023-02-16T19:49:15.000Z,28.17
2023-02-16T19:51:42.664Z,23.40
2023-02-16T19:54:09.833Z,25.30
2023-02-16T19:56:40.313Z,21.40
2023-02-16T19:59:08.394Z,24.00
2023-02-16T20:01:35.193Z,24.53
2023-02-16T20:04:02.757Z,24.30
2023-02-16T20:06:32.867Z,24.80
2023-02-16T20:09:00.789Z,25.53
2023-02-16T20:11:29.404Z,39.07
2023-02-16T20:13:56.372Z,23.80
2023-02-16T20:16:23.780Z,28.53
2023-02-16T20:18:51.224Z,25.30
2023-02-16T20:21:23.237Z,25.43
2023-02-16T20:23:52.618Z,29.17
2023-02-16T20:26:22.415Z,26.67
2023-02-16T20:28:50.612Z,36.30
2023-02-16T20:31:21.441Z,29.50
2023-02-16T20:33:49.429Z,28.43
2023-02-16T20:36:16.500Z,28.17
2023-02-16T20:38:43.201Z,25.43
2023-02-16T20:41:10.094Z,33.40
2023-02-16T20:43:37.067Z,29.47
2023-02-16T20:46:06.241Z,27.90
2023-02-16T20:48:33.455Z,35.33
2023-02-16T20:51:04.784Z,25.93
2023-02-16T20:53:33.452Z,29.87
2023-02-16T20:56:09.140Z,27.53
2023-02-16T20:58:37.023Z,29.07
2023-02-16T21:01:14.956Z,29.80
2023-02-16T21:03:41.884Z,29.23
2023-02-16T21:06:08.804Z,29.97
2023-02-16T21:08:35.778Z,27.30
2023-02-16T21:11:02.481Z,30.93
2023-02-16T21:13:29.281Z,30.53
2023-02-16T21:15:55.984Z,32.93
2023-02-16T21:18:22.720Z,29.40
2023-02-16T21:20:49.471Z,28.67
2023-02-16T21:23:16.124Z,29.27
2023-02-16T21:25:42.788Z,28.67
2023-02-16T21:28:09.623Z,33.00
2023-02-16T21:30:36.261Z,33.40
2023-02-16T21:33:03.432Z,30.57
2023-02-16T21:35:31.966Z,30.73
2023-02-16T21:37:58.614Z,29.73
2023-02-16T21:40:44.664Z,31.73
2023-02-16T21:43:12.071Z,34.33
2023-02-16T21:45:38.834Z,32.37
2023-02-16T21:48:24.277Z,36.67
2023-02-16T21:50:50.932Z,37.73
2023-02-16T21:53:17.554Z,35.70
2023-02-16T21:56:03.335Z,33.13
2023-02-16T21:58:33.342Z,36.40
2023-02-16T22:01:00.965Z,35.53
2023-02-16T22:03:28.577Z,38.80
2023-02-16T22:05:55.305Z,36.93
2023-02-16T22:08:22.037Z,39.03
2023-02-16T22:10:48.679Z,37.60
2023-02-16T22:13:15.318Z,46.93
2023-02-16T22:15:42.369Z,39.17
2023-02-16T22:18:09.046Z,36.33
2023-02-16T22:20:35.852Z,40.93
2023-02-16T22:23:03.259Z,40.07
2023-02-16T22:25:29.929Z,42.33
2023-02-16T22:27:56.541Z,41.73
2023-02-16T22:30:23.272Z,39.80
2023-02-16T22:32:51.229Z,38.23
2023-02-16T22:35:18.135Z,38.73
2023-02-16T22:37:44.760Z,39.67
2023-02-16T22:40:11.404Z,41.20
2023-02-16T22:42:38.846Z,45.13
2023-02-16T22:45:05.875Z,41.33
2023-02-16T22:47:32.560Z,45.20
2023-02-16T22:49:59.257Z,41.23
2023-02-16T22:52:26.001Z,42.87
2023-02-16T22:54:52.637Z,40.57
2023-02-16T22:57:19.326Z,45.23
2023-02-16T22:59:46.027Z,38.83
2023-02-16T23:02:12.713Z,35.90
2023-02-16T23:04:41.203Z,39.00
2023-02-16T23:07:09.066Z,36.63
2023-02-16T23:09:35.774Z,42.20
2023-02-16T23:12:02.714Z,39.30
2023-02-16T23:14:29.445Z,36.93
2023-02-16T23:16:56.236Z,39.63
2023-02-16T23:19:26.160Z,39.40
2023-02-16T23:21:53.683Z,41.40
2023-02-16T23:24:22.805Z,38.17
2023-02-16T23:26:50.076Z,34.83
2023-02-16T23:29:17.455Z,34.73
2023-02-16T23:31:46.869Z,40.47
2023-02-16T23:34:14.656Z,38.50
2023-02-16T23:36:42.056Z,41.80
2023-02-16T23:39:12.211Z,37.97
2023-02-16T23:41:39.531Z,35.50
2023-02-16T23:44:06.918Z,31.37
2023-02-16T23:46:33.721Z,27.20
2023-02-16T23:49:00.418Z,30.60
2023-02-16T23:51:27.794Z,32.87
2023-02-16T23:53:54.837Z,32.50
2023-02-16T23:56:24.258Z,29.57
2023-02-16T23:58:51.222Z,31.30
